createdAt,value
2022-09-12T00:03:32.620Z,95877.00
2022-09-12T00:09:11.547Z,95878.00
2022-09-12T00:14:39.353Z,95883.00
2022-09-12T00:20:09.471Z,95876.00
2022-09-12T00:25:46.125Z,95872.00
2022-09-12T00:31:18.456Z,95868.00
2022-09-12T00:36:46.637Z,95870.00
2022-09-12T00:42:14.296Z,95859.00
2022-09-12T00:47:43.570Z,95852.00
2022-09-12T00:53:12.450Z,95856.00
2022-09-12T00:58:51.661Z,95849.00
2022-09-12T01:04:22.719Z,95843.00
2022-09-12T01:09:51.233Z,95839.00
2022-09-12T01:15:19.585Z,95835.00
2022-09-12T01:21:31.215Z,95822.00
2022-09-12T01:27:20.143Z,95821.00
2022-09-12T01:33:05.427Z,95810.00
2022-09-12T01:38:59.536Z,95808.00
2022-09-12T01:44:57.071Z,95803.00
2022-09-12T01:50:32.255Z,95806.00
2022-09-12T01:56:14.424Z,95796.00
2022-09-12T02:02:13.676Z,95796.00
2022-09-12T02:07:58.791Z,95797.00
2022-09-12T02:13:36.664Z,95783.00
2022-09-12T02:19:36.780Z,95771.00
2022-09-12T02:25:06.958Z,95776.00
2022-09-12T02:30:50.945Z,95773.00
2022-09-12T02:37:23.684Z,95762.00
2022-09-12T02:42:52.087Z,95770.00
2022-09-12T02:48:34.759Z,95764.00
2022-09-12T02:54:03.620Z,95761.00
2022-09-12T02:59:31.345Z,95760.00
2022-09-12T03:05:31.734Z,95758.00
2022-09-12T03:11:23.906Z,95754.00
2022-09-12T03:17:52.474Z,95752.00
2022-09-12T03:23:39.793Z,95757.00
2022-09-12T03:29:08.981Z,95746.00
2022-09-12T03:34:39.694Z,95743.00
2022-09-12T03:40:10.229Z,95748.00
2022-09-12T03:45:38.662Z,95751.00
2022-09-12T03:51:10.560Z,95758.00
2022-09-12T03:56:40.440Z,95755.00
2022-09-12T04:02:09.913Z,95750.00
2022-09-12T04:07:37.794Z,95759.00
2022-09-12T04:13:05.623Z,95757.00
2022-09-12T04:18:34.669Z,95757.00
2022-09-12T04:24:02.661Z,95754.00
2022-09-12T04:29:31.573Z,95752.00
2022-09-12T04:34:59.375Z,95753.00
2022-09-12T04:40:29.619Z,95755.00
2022-09-12T04:46:11.205Z,95751.00
2022-09-12T04:51:47.919Z,95744.00
2022-09-12T04:57:15.986Z,95756.00
2022-09-12T05:02:44.129Z,95749.00
2022-09-12T05:08:11.875Z,95748.00
2022-09-12T05:13:40.539Z,95759.00
2022-09-12T05:19:09.686Z,95760.00
2022-09-12T05:24:50.402Z,95768.00
2022-09-12T05:30:18.604Z,95775.00
2022-09-12T05:35:52.773Z,95774.00
2022-09-12T05:41:25.910Z,95773.00
2022-09-12T05:46:54.039Z,95783.00
2022-09-12T05:52:21.687Z,95771.00
2022-09-12T05:57:49.541Z,95785.00
2022-09-12T06:03:17.786Z,95775.00
2022-09-12T06:08:48.490Z,95780.00
2022-09-12T06:14:19.556Z,95778.00
2022-09-12T06:19:47.344Z,95777.00
2022-09-12T06:25:15.240Z,95781.00
2022-09-12T06:30:43.419Z,95777.00
2022-09-12T06:36:21.248Z,95775.00
2022-09-12T06:41:51.138Z,95784.00
2022-09-12T06:47:18.986Z,95780.00
2022-09-12T06:52:50.191Z,95782.00
2022-09-12T06:58:17.875Z,95786.00
2022-09-12T07:03:52.821Z,95781.00
2022-09-12T07:09:20.645Z,95777.00
2022-09-12T07:14:48.319Z,95787.00
2022-09-12T07:20:16.776Z,95784.00
2022-09-12T07:25:44.393Z,95791.00
2022-09-12T07:31:16.259Z,95794.00
2022-09-12T07:36:44.070Z,95788.00
2022-09-12T07:42:13.766Z,95799.00
2022-09-12T07:47:41.788Z,95806.00
2022-09-12T07:53:09.872Z,95794.00
2022-09-12T07:58:40.558Z,95799.00
2022-09-12T08:04:08.682Z,95812.00
2022-09-12T08:09:36.603Z,95804.00
2022-09-12T08:15:05.145Z,95804.00
2022-09-12T08:20:33.267Z,95811.00
2022-09-12T08:26:06.097Z,95808.00
2022-09-12T08:31:36.656Z,95814.00
2022-09-12T08:37:05.590Z,95811.00
2022-09-12T08:43:21.112Z,95812.00
2022-09-12T08:48:49.230Z,95811.00
2022-09-12T08:54:26.976Z,95808.00
2022-09-12T08:59:55.046Z,95810.00
2022-09-12T09:05:30.642Z,95809.00
2022-09-12T09:11:26.422Z,95807.00
2022-09-12T09:16:55.917Z,95795.00
2022-09-12T09:22:36.212Z,95799.00
2022-09-12T09:28:44.662Z,95785.00
2022-09-12T09:34:26.106Z,95783.00
2022-09-12T09:41:01.518Z,95781.00
2022-09-12T09:46:29.549Z,95786.00
2022-09-12T09:52:00.690Z,95776.00
2022-09-12T09:57:34.678Z,95779.00
2022-09-12T10:03:14.351Z,95775.00
2022-09-12T10:08:42.252Z,95779.00
2022-09-12T10:14:38.767Z,95782.00
2022-09-12T10:20:32.577Z,95766.00
2022-09-12T10:26:05.217Z,95759.00
2022-09-12T10:31:54.538Z,95763.00
2022-09-12T10:37:32.946Z,95761.00
2022-09-12T10:43:02.869Z,95758.00
2022-09-12T10:48:34.097Z,95758.00
2022-09-12T10:54:05.862Z,95757.00
2022-09-12T10:59:45.703Z,95750.00
2022-09-12T11:05:40.252Z,95751.00
2022-09-12T11:11:32.159Z,95753.00
2022-09-12T11:17:23.339Z,95745.00
2022-09-12T11:23:24.800Z,95747.00
2022-09-12T11:29:46.875Z,95746.00
2022-09-12T11:35:29.995Z,95739.00
2022-09-12T11:41:06.577Z,95736.00
2022-09-12T11:46:38.584Z,95726.00
2022-09-12T11:52:23.894Z,95737.00
2022-09-12T11:57:58.833Z,95731.00
2022-09-12T12:03:47.291Z,95732.00
2022-09-12T12:09:18.098Z,95726.00
2022-09-12T12:14:49.752Z,95722.00
2022-09-12T12:20:18.614Z,95715.00
2022-09-12T12:26:02.520Z,95717.00
2022-09-12T12:31:30.506Z,95716.00
2022-09-12T12:37:03.159Z,95709.00
2022-09-12T12:42:35.942Z,95710.00
2022-09-12T12:48:15.640Z,95695.00
2022-09-12T12:53:43.597Z,95699.00
2022-09-12T12:59:23.188Z,95687.00
2022-09-12T13:04:51.130Z,95679.00
2022-09-12T13:10:29.775Z,95683.00
2022-09-12T13:15:58.041Z,95676.00
2022-09-12T13:21:25.962Z,95674.00
2022-09-12T13:26:54.671Z,95671.00
2022-09-12T13:32:22.570Z,95659.00
2022-09-12T13:38:26.344Z,95656.00
2022-09-12T13:43:54.510Z,95649.00
2022-09-12T13:49:38.321Z,95631.00
2022-09-12T13:55:21.335Z,95639.00
2022-09-12T14:01:10.105Z,95630.00
2022-09-12T14:06:50.075Z,95620.00
2022-09-12T14:12:44.025Z,95601.00
2022-09-12T14:18:29.369Z,95597.00
2022-09-12T14:23:57.990Z,95581.00
2022-09-12T14:29:26.682Z,95581.00
2022-09-12T14:35:12.814Z,95587.00
2022-09-12T14:40:50.204Z,95587.00
2022-09-12T14:46:39.572Z,95594.00
2022-09-12T14:52:30.025Z,95581.00
2022-09-12T14:58:18.578Z,95595.00
2022-09-12T15:03:49.817Z,95612.00
2022-09-12T15:09:21.485Z,95614.00
2022-09-12T15:14:49.241Z,95610.00
2022-09-12T15:20:17.153Z,95615.00
2022-09-12T15:25:45.644Z,95614.00
2022-09-12T15:31:27.194Z,95602.00
2022-09-12T15:36:55.017Z,95600.00
2022-09-12T15:42:29.786Z,95606.00
2022-09-12T15:47:58.316Z,95605.00
2022-09-12T15:53:26.101Z,95592.00
2022-09-12T15:58:59.186Z,95586.00
2022-09-12T16:04:30.229Z,95556.00
2022-09-12T16:09:58.171Z,95583.00
2022-09-12T16:15:26.864Z,95592.00
2022-09-12T16:20:56.332Z,95602.00
2022-09-12T16:26:24.766Z,95593.00
2022-09-12T16:31:52.837Z,95593.00
2022-09-12T16:37:22.812Z,95571.00
2022-09-12T16:42:50.713Z,95574.00
2022-09-12T16:48:18.602Z,95558.00
2022-09-12T16:53:46.937Z,95559.00
2022-09-12T16:59:19.163Z,95558.00
2022-09-12T17:04:47.010Z,95555.00
2022-09-12T17:10:14.891Z,95552.00
2022-09-12T17:15:42.684Z,95569.00
2022-09-12T17:21:11.993Z,95564.00
2022-09-12T17:26:41.174Z,95568.00
2022-09-12T17:32:08.973Z,95571.00
2022-09-12T17:37:37.326Z,95573.00
2022-09-12T17:43:05.382Z,95573.00
2022-09-12T17:48:33.572Z,95569.00
2022-09-12T17:54:06.727Z,95571.00
2022-09-12T17:59:34.601Z,95577.00
2022-09-12T18:05:05.427Z,95572.00
2022-09-12T18:10:33.690Z,95581.00
2022-09-12T18:16:10.707Z,95563.00
2022-09-12T18:21:39.244Z,95571.00
2022-09-12T18:27:07.443Z,95582.00
2022-09-12T18:32:35.621Z,95573.00
2022-09-12T18:38:04.092Z,95575.00
2022-09-12T18:43:33.525Z,95577.00
2022-09-12T18:49:03.246Z,95580.00
2022-09-12T18:54:33.867Z,95577.00
2022-09-12T19:00:10.507Z,95568.00
2022-09-12T19:05:41.509Z,95561.00
2022-09-12T19:11:12.566Z,95567.00
2022-09-12T19:16:42.086Z,95558.00
2022-09-12T19:22:11.275Z,95559.00
2022-09-12T19:27:40.567Z,95569.00
2022-09-12T19:33:09.719Z,95563.00
2022-09-12T19:38:39.192Z,95565.00
2022-09-12T19:44:08.258Z,95562.00
2022-09-12T19:49:40.848Z,95566.00
2022-09-12T19:55:10.701Z,95552.00
2022-09-12T20:00:39.913Z,95558.00
2022-09-12T20:06:12.690Z,95558.00
2022-09-12T20:11:40.564Z,95562.00
2022-09-12T20:17:08.714Z,95580.00
2022-09-12T20:22:40.118Z,95577.00
2022-09-12T20:28:10.494Z,95577.00
2022-09-12T20:33:38.967Z,95573.00
2022-09-12T20:39:07.479Z,95568.00
2022-09-12T20:44:53.559Z,95559.00
2022-09-12T20:50:22.123Z,95551.00
2022-09-12T20:55:54.076Z,95540.00
2022-09-12T21:01:22.747Z,95537.00
2022-09-12T21:06:50.683Z,95546.00
2022-09-12T21:12:18.738Z,95549.00
2022-09-12T21:17:46.371Z,95544.00
2022-09-12T21:23:14.666Z,95542.00
2022-09-12T21:28:42.257Z,95543.00
2022-09-12T21:34:10.460Z,95542.00
2022-09-12T21:39:38.301Z,95540.00
2022-09-12T21:45:06.858Z,95530.00
2022-09-12T21:50:35.164Z,95531.00
2022-09-12T21:56:08.089Z,95538.00
2022-09-12T22:01:36.103Z,95543.00
2022-09-12T22:07:05.519Z,95554.00
2022-09-12T22:12:33.978Z,95547.00
2022-09-12T22:18:01.796Z,95548.00
2022-09-12T22:23:48.333Z,95543.00
2022-09-12T22:29:16.064Z,95537.00
2022-09-12T22:34:43.963Z,95526.00
2022-09-12T22:40:12.159Z,95521.00
2022-09-12T22:45:43.615Z,95523.00
2022-09-12T22:51:11.812Z,95523.00
2022-09-12T22:56:40.174Z,95519.00
2022-09-12T23:02:08.544Z,95517.00
2022-09-12T23:07:36.167Z,95514.00
2022-09-12T23:13:05.246Z,95504.00
2022-09-12T23:18:36.268Z,95492.00
2022-09-12T23:24:04.688Z,95495.00
2022-09-12T23:29:34.427Z,95495.00
2022-09-12T23:35:03.414Z,95487.00
2022-09-12T23:40:31.753Z,95488.00
2022-09-12T23:46:00.260Z,95491.00
2022-09-12T23:51:28.403Z,95473.00
2022-09-12T23:56:56.173Z,95475.00
